createdAt,value
2023-02-09T00:01:13.922Z,-4.30
2023-02-09T00:03:42.804Z,-4.20
2023-02-09T00:06:13.649Z,-4.20
2023-02-09T00:08:41.500Z,-4.20
2023-02-09T00:11:20.175Z,-4.30
2023-02-09T00:13:47.457Z,-4.30
2023-02-09T00:16:14.467Z,-4.50
2023-02-09T00:18:41.717Z,-4.80
2023-02-09T00:21:10.959Z,-5.10
2023-02-09T00:23:40.838Z,-5.40
2023-02-09T00:26:11.823Z,-5.60
2023-02-09T00:28:39.146Z,-5.90
2023-02-09T00:31:08.220Z,-6.10
2023-02-09T00:33:36.521Z,-6.20
2023-02-09T00:36:05.673Z,-6.40
2023-02-09T00:38:33.644Z,-6.50
2023-02-09T00:41:00.658Z,-6.60
2023-02-09T00:43:28.142Z,-6.60
2023-02-09T00:45:55.218Z,-6.50
2023-02-09T00:48:22.805Z,-6.50
2023-02-09T00:50:53.428Z,-6.40
2023-02-09T00:53:21.910Z,-6.40
2023-02-09T00:55:49.352Z,-6.40
2023-02-09T00:58:17.488Z,-6.40
2023-02-09T01:00:44.875Z,-6.50
2023-02-09T01:03:12.548Z,-6.60
2023-02-09T01:05:41.343Z,-6.60
2023-02-09T01:08:09.193Z,-6.60
2023-02-09T01:10:37.846Z,-6.60
2023-02-09T01:13:05.190Z,-6.60
2023-02-09T01:15:32.320Z,-6.60
2023-02-09T01:18:00.243Z,-6.60
2023-02-09T01:20:27.665Z,-6.60
2023-02-09T01:22:55.070Z,-6.60
2023-02-09T01:25:22.040Z,-6.60
2023-02-09T01:27:49.421Z,-6.60
2023-02-09T01:30:17.115Z,-6.70
2023-02-09T01:32:44.411Z,-6.80
2023-02-09T01:35:11.650Z,-6.90
2023-02-09T01:37:38.939Z,-6.90
2023-02-09T01:40:06.477Z,-6.90
2023-02-09T01:42:33.836Z,-7.00
2023-02-09T01:45:18.781Z,-7.10
2023-02-09T01:47:50.785Z,-7.20
2023-02-09T01:50:18.501Z,-7.10
2023-02-09T01:52:48.193Z,-7.00
2023-02-09T01:55:19.922Z,-6.90
2023-02-09T01:57:54.255Z,-6.70
2023-02-09T02:00:22.722Z,-6.60
2023-02-09T02:02:56.143Z,-6.50
2023-02-09T02:05:25.194Z,-6.50
2023-02-09T02:08:03.492Z,-6.50
2023-02-09T02:10:31.429Z,-6.50
2023-02-09T02:12:58.758Z,-6.40
2023-02-09T02:15:30.033Z,-6.40
2023-02-09T02:18:03.243Z,-6.30
2023-02-09T02:20:39.089Z,-6.20
2023-02-09T02:23:09.058Z,-6.20
2023-02-09T02:26:04.145Z,-6.20
2023-02-09T02:28:51.480Z,-6.20
2023-02-09T02:31:56.179Z,-6.10
2023-02-09T02:34:41.817Z,-6.00
2023-02-09T02:37:18.400Z,-5.90
2023-02-09T02:39:51.518Z,-5.80
2023-02-09T02:43:02.893Z,-5.70
2023-02-09T02:45:42.136Z,-5.60
2023-02-09T02:48:46.915Z,-5.50
2023-02-09T02:51:35.417Z,-5.50
2023-02-09T02:54:10.625Z,-5.40
2023-02-09T02:56:42.793Z,-5.30
2023-02-09T02:59:14.052Z,-5.30
2023-02-09T03:01:49.578Z,-5.20
2023-02-09T03:04:17.285Z,-5.20
2023-02-09T03:06:44.564Z,-5.20
2023-02-09T03:09:12.082Z,-5.10
2023-02-09T03:11:46.348Z,-5.00
2023-02-09T03:14:28.014Z,-4.90
2023-02-09T03:17:00.713Z,-4.80
2023-02-09T03:19:30.479Z,-4.70
2023-02-09T03:22:06.171Z,-4.70
2023-02-09T03:25:11.690Z,-4.70
2023-02-09T03:27:52.963Z,-4.60
2023-02-09T03:30:21.912Z,-4.60
2023-02-09T03:32:49.291Z,-4.50
2023-02-09T03:35:19.311Z,-4.50
2023-02-09T03:37:46.582Z,-4.50
2023-02-09T03:40:13.734Z,-4.50
2023-02-09T03:42:40.995Z,-4.50
2023-02-09T03:45:08.965Z,-4.60
2023-02-09T03:47:36.252Z,-4.70
2023-02-09T03:50:04.155Z,-4.70
2023-02-09T03:52:31.691Z,-4.70
2023-02-09T03:54:58.747Z,-4.80
2023-02-09T03:57:26.032Z,-4.80
2023-02-09T03:59:53.064Z,-4.80
2023-02-09T04:02:20.341Z,-4.80
2023-02-09T04:04:47.325Z,-4.80
2023-02-09T04:07:14.781Z,-4.80
2023-02-09T04:09:41.691Z,-4.80
2023-02-09T04:12:08.960Z,-4.80
2023-02-09T04:14:35.957Z,-4.80
2023-02-09T04:17:03.368Z,-4.80
2023-02-09T04:19:30.284Z,-4.90
2023-02-09T04:21:57.569Z,-4.90
2023-02-09T04:24:24.584Z,-4.90
2023-02-09T04:26:51.916Z,-4.90
2023-02-09T04:29:18.876Z,-4.90
2023-02-09T04:31:46.198Z,-4.90
2023-02-09T04:34:13.188Z,-4.90
2023-02-09T04:36:40.542Z,-4.90
2023-02-09T04:39:07.544Z,-4.90
2023-02-09T04:41:34.861Z,-4.90
2023-02-09T04:44:01.804Z,-4.80
2023-02-09T04:46:29.088Z,-4.80
2023-02-09T04:48:56.075Z,-4.80
2023-02-09T04:51:23.587Z,-4.90
2023-02-09T04:53:50.533Z,-4.90
2023-02-09T04:56:18.347Z,-4.90
2023-02-09T04:59:04.011Z,-4.90
2023-02-09T05:01:32.247Z,-5.00
2023-02-09T05:03:59.332Z,-5.00
2023-02-09T05:06:26.782Z,-5.10
2023-02-09T05:08:53.725Z,-5.10
2023-02-09T05:11:21.004Z,-5.20
2023-02-09T05:13:48.844Z,-5.30
2023-02-09T05:16:17.806Z,-5.30
2023-02-09T05:18:45.489Z,-5.40
2023-02-09T05:21:14.410Z,-5.50
2023-02-09T05:23:41.801Z,-5.50
2023-02-09T05:26:09.185Z,-5.60
2023-02-09T05:28:36.452Z,-5.70
2023-02-09T05:31:04.025Z,-5.70
2023-02-09T05:33:31.108Z,-5.80
2023-02-09T05:35:58.368Z,-5.80
2023-02-09T05:38:25.655Z,-5.90
2023-02-09T05:40:52.907Z,-5.90
2023-02-09T05:43:19.931Z,-5.90
2023-02-09T05:45:47.192Z,-6.00
2023-02-09T05:48:14.264Z,-6.00
2023-02-09T05:50:41.581Z,-6.10
2023-02-09T05:53:09.275Z,-6.00
2023-02-09T05:55:36.639Z,-6.10
2023-02-09T05:58:04.147Z,-6.20
2023-02-09T06:00:31.360Z,-6.20
2023-02-09T06:02:58.933Z,-6.20
2023-02-09T06:05:27.249Z,-6.20
2023-02-09T06:07:54.499Z,-6.20
2023-02-09T06:10:22.083Z,-6.20
2023-02-09T06:12:49.064Z,-6.20
2023-02-09T06:15:16.631Z,-6.20
2023-02-09T06:17:43.946Z,-6.20
2023-02-09T06:20:11.936Z,-6.20
2023-02-09T06:22:38.976Z,-6.20
2023-02-09T06:25:06.548Z,-6.20
2023-02-09T06:27:33.563Z,-6.10
2023-02-09T06:30:00.940Z,-6.10
2023-02-09T06:32:28.004Z,-6.10
2023-02-09T06:34:55.237Z,-6.10
2023-02-09T06:37:22.300Z,-6.00
2023-02-09T06:39:49.513Z,-6.00
2023-02-09T06:42:16.523Z,-6.00
2023-02-09T06:44:43.733Z,-6.00
2023-02-09T06:47:10.706Z,-6.00
2023-02-09T06:49:38.009Z,-6.00
2023-02-09T06:52:05.349Z,-6.00
2023-02-09T06:54:32.789Z,-5.90
2023-02-09T06:57:00.013Z,-5.80
2023-02-09T06:59:27.215Z,-5.80
2023-02-09T07:01:55.097Z,-5.70
2023-02-09T07:04:22.816Z,-5.60
2023-02-09T07:06:49.923Z,-5.50
2023-02-09T07:09:17.126Z,-5.50
2023-02-09T07:11:44.163Z,-5.30
2023-02-09T07:14:11.360Z,-5.20
2023-02-09T07:16:38.302Z,-5.10
2023-02-09T07:19:05.575Z,-5.00
2023-02-09T07:21:32.530Z,-4.90
2023-02-09T07:23:59.903Z,-4.70
2023-02-09T07:26:26.926Z,-4.50
2023-02-09T07:28:54.197Z,-4.20
2023-02-09T07:31:21.535Z,-3.90
2023-02-09T07:33:49.026Z,-3.60
2023-02-09T07:36:18.182Z,-3.20
2023-02-09T07:38:45.875Z,-2.90
2023-02-09T07:41:19.581Z,-2.50
2023-02-09T07:43:47.214Z,-2.30
2023-02-09T07:46:16.735Z,-2.10
2023-02-09T07:48:44.087Z,-1.80
2023-02-09T07:51:20.012Z,-1.60
2023-02-09T07:53:47.944Z,-1.50
2023-02-09T07:56:14.946Z,-1.00
2023-02-09T07:58:42.340Z,-0.80
2023-02-09T08:01:11.819Z,-0.80
2023-02-09T08:03:40.946Z,-0.70
2023-02-09T08:06:19.560Z,-0.60
2023-02-09T08:08:52.000Z,-0.70
2023-02-09T08:11:29.206Z,-0.50
2023-02-09T08:13:58.309Z,-0.20
2023-02-09T08:16:29.656Z,-0.50
2023-02-09T08:19:08.865Z,-0.40
2023-02-09T08:21:39.980Z,-0.20
2023-02-09T08:24:09.222Z,0.30
2023-02-09T08:26:36.420Z,0.40
2023-02-09T08:29:04.052Z,0.50
2023-02-09T08:31:31.255Z,0.30
2023-02-09T08:33:58.719Z,0.30
2023-02-09T08:36:26.081Z,0.40
2023-02-09T08:38:53.376Z,0.30
2023-02-09T08:41:20.880Z,0.50
2023-02-09T08:43:50.204Z,0.70
2023-02-09T08:46:18.199Z,0.90
2023-02-09T08:48:47.229Z,0.90
2023-02-09T08:51:15.535Z,0.70
2023-02-09T08:53:43.442Z,1.00
2023-02-09T08:56:10.660Z,1.20
2023-02-09T08:58:37.969Z,1.40
2023-02-09T09:01:05.627Z,1.50
2023-02-09T09:03:33.260Z,1.70
2023-02-09T09:06:06.192Z,1.70
2023-02-09T09:08:35.239Z,1.70
2023-02-09T09:11:02.725Z,1.80
2023-02-09T09:13:30.038Z,1.70
2023-02-09T09:15:57.047Z,1.80
2023-02-09T09:18:25.948Z,2.20
2023-02-09T09:20:56.172Z,2.40
2023-02-09T09:23:23.717Z,2.20
2023-02-09T09:25:50.873Z,2.40
2023-02-09T09:28:18.168Z,2.80
2023-02-09T09:30:45.328Z,2.70
2023-02-09T09:33:12.658Z,3.10
2023-02-09T09:35:39.892Z,3.50
2023-02-09T09:38:07.152Z,3.70
2023-02-09T09:40:37.082Z,3.70
2023-02-09T09:43:19.792Z,3.50
2023-02-09T09:45:48.179Z,3.60
2023-02-09T09:48:24.757Z,3.50
2023-02-09T09:50:58.745Z,3.70
2023-02-09T09:53:33.358Z,3.80
2023-02-09T09:56:07.754Z,3.90
2023-02-09T09:58:39.344Z,3.80
2023-02-09T10:01:10.395Z,3.60
2023-02-09T10:03:38.178Z,3.60
2023-02-09T10:06:20.696Z,3.80
2023-02-09T10:09:03.835Z,4.00
2023-02-09T10:11:41.422Z,4.20
2023-02-09T10:14:19.591Z,4.10
2023-02-09T10:16:46.648Z,3.80
2023-02-09T10:19:17.063Z,3.60
2023-02-09T10:21:44.251Z,3.30
2023-02-09T10:24:32.875Z,3.10
2023-02-09T10:27:05.178Z,3.20
2023-02-09T10:29:32.491Z,3.60
2023-02-09T10:32:26.854Z,3.80
2023-02-09T10:34:58.445Z,4.10
2023-02-09T10:37:39.956Z,4.50
2023-02-09T10:40:21.213Z,4.70
2023-02-09T10:42:59.446Z,4.70
2023-02-09T10:45:44.767Z,4.90
2023-02-09T10:48:11.885Z,5.20
2023-02-09T10:50:49.903Z,4.70
2023-02-09T10:53:24.738Z,4.30
2023-02-09T10:56:18.496Z,4.10
2023-02-09T10:58:51.785Z,3.80
2023-02-09T11:01:31.024Z,3.30
2023-02-09T11:04:07.201Z,2.90
2023-02-09T11:06:58.486Z,3.00
2023-02-09T11:09:30.491Z,3.00
2023-02-09T11:11:58.099Z,3.00
2023-02-09T11:14:25.472Z,2.80
2023-02-09T11:17:45.899Z,2.60
2023-02-09T11:20:23.432Z,2.60
2023-02-09T11:23:16.746Z,2.70
2023-02-09T11:25:43.950Z,2.80
2023-02-09T11:28:51.852Z,2.60
2023-02-09T11:31:34.226Z,2.70
2023-02-09T11:34:13.613Z,3.00
2023-02-09T11:36:43.834Z,3.20
2023-02-09T11:39:16.966Z,3.20
2023-02-09T11:42:14.602Z,2.90
2023-02-09T11:45:06.738Z,2.90
2023-02-09T11:47:50.487Z,2.80
2023-02-09T11:50:25.136Z,2.60
2023-02-09T11:52:59.990Z,2.50
2023-02-09T11:55:33.297Z,2.70
2023-02-09T11:58:10.853Z,3.00
2023-02-09T12:01:20.612Z,3.00
2023-02-09T12:04:20.549Z,3.00
2023-02-09T12:06:54.973Z,3.10
2023-02-09T12:10:13.110Z,3.30
2023-02-09T12:12:46.052Z,3.40
2023-02-09T12:15:18.143Z,3.50
2023-02-09T12:17:56.343Z,3.70
2023-02-09T12:20:31.727Z,3.90
2023-02-09T12:23:04.493Z,3.80
2023-02-09T12:25:34.444Z,3.90
2023-02-09T12:28:33.959Z,3.90
2023-02-09T12:31:02.579Z,4.00
2023-02-09T12:33:34.252Z,4.00
2023-02-09T12:36:10.955Z,4.10
2023-02-09T12:39:04.762Z,4.00
2023-02-09T12:41:35.883Z,3.70
2023-02-09T12:44:18.618Z,3.90
2023-02-09T12:46:48.597Z,4.00
2023-02-09T12:49:32.084Z,4.20
2023-02-09T12:53:05.648Z,4.10
2023-02-09T12:55:33.186Z,3.60
2023-02-09T12:58:00.474Z,3.40
2023-02-09T13:00:34.251Z,3.40
2023-02-09T13:03:10.982Z,3.50
2023-02-09T13:05:44.717Z,3.50
2023-02-09T13:08:19.269Z,3.50
2023-02-09T13:10:57.748Z,3.70
2023-02-09T13:13:39.592Z,3.80
2023-02-09T13:16:29.644Z,3.60
2023-02-09T13:19:21.025Z,3.40
2023-02-09T13:22:06.624Z,3.70
2023-02-09T13:24:33.894Z,3.90
2023-02-09T13:27:01.232Z,3.90
2023-02-09T13:29:32.652Z,3.90
2023-02-09T13:32:17.953Z,3.90
2023-02-09T13:34:55.719Z,3.60
2023-02-09T13:37:40.990Z,3.50
2023-02-09T13:40:29.951Z,3.40
2023-02-09T13:43:01.358Z,3.40
2023-02-09T13:45:29.028Z,3.20
2023-02-09T13:47:59.328Z,3.20
2023-02-09T13:50:33.492Z,3.30
2023-02-09T13:53:10.969Z,3.30
2023-02-09T13:55:45.648Z,3.20
2023-02-09T13:58:25.844Z,3.10
2023-02-09T14:00:58.132Z,3.10
2023-02-09T14:03:28.602Z,3.10
2023-02-09T14:06:11.273Z,3.10
2023-02-09T14:08:40.652Z,3.10
2023-02-09T14:11:43.134Z,3.10
2023-02-09T14:14:28.316Z,3.10
2023-02-09T14:17:25.886Z,3.10
2023-02-09T14:19:55.692Z,3.00
2023-02-09T14:22:34.129Z,3.00
2023-02-09T14:25:06.268Z,3.00
2023-02-09T14:27:34.893Z,3.00
2023-02-09T14:30:02.089Z,2.90
2023-02-09T14:32:38.323Z,2.90
2023-02-09T14:35:23.637Z,2.90
2023-02-09T14:37:55.704Z,2.80
2023-02-09T14:40:32.033Z,2.80
2023-02-09T14:43:03.728Z,2.80
2023-02-09T14:45:38.506Z,2.70
2023-02-09T14:48:22.246Z,2.70
2023-02-09T14:50:51.309Z,2.70
2023-02-09T14:53:19.503Z,2.70
2023-02-09T14:55:47.760Z,2.70
2023-02-09T14:58:41.315Z,2.60
2023-02-09T15:01:09.867Z,2.50
2023-02-09T15:03:37.170Z,2.50
2023-02-09T15:06:05.592Z,2.50
2023-02-09T15:08:36.097Z,2.40
2023-02-09T15:11:28.612Z,2.30
2023-02-09T15:14:03.815Z,2.30
2023-02-09T15:16:31.386Z,2.20
2023-02-09T15:18:59.038Z,2.10
2023-02-09T15:21:26.034Z,2.10
2023-02-09T15:23:53.322Z,2.10
2023-02-09T15:26:22.746Z,2.10
2023-02-09T15:28:50.128Z,2.10
2023-02-09T15:31:17.114Z,2.00
2023-02-09T15:33:44.436Z,1.90
2023-02-09T15:36:16.673Z,1.90
2023-02-09T15:38:43.957Z,1.80
2023-02-09T15:41:29.471Z,1.80
2023-02-09T15:44:15.505Z,1.80
2023-02-09T15:47:02.650Z,1.80
2023-02-09T15:49:31.068Z,1.70
2023-02-09T15:51:58.029Z,1.70
2023-02-09T15:54:31.756Z,1.70
2023-02-09T15:57:00.179Z,1.60
2023-02-09T15:59:27.437Z,1.60
2023-02-09T16:01:54.634Z,1.50
2023-02-09T16:04:21.876Z,1.50
2023-02-09T16:06:51.666Z,1.50
2023-02-09T16:09:26.669Z,1.50
2023-02-09T16:11:54.384Z,1.60
2023-02-09T16:14:24.110Z,1.50
2023-02-09T16:16:51.554Z,1.50
2023-02-09T16:19:19.763Z,1.50
2023-02-09T16:21:52.984Z,1.50
2023-02-09T16:24:30.869Z,1.50
2023-02-09T16:27:03.062Z,1.50
2023-02-09T16:29:30.441Z,1.40
2023-02-09T16:31:57.429Z,1.30
2023-02-09T16:34:24.669Z,1.30
2023-02-09T16:36:51.784Z,1.30
2023-02-09T16:39:21.338Z,1.30
2023-02-09T16:41:50.846Z,1.20
2023-02-09T16:44:20.136Z,1.20
2023-02-09T16:46:49.999Z,1.20
2023-02-09T16:49:39.458Z,1.10
2023-02-09T16:52:16.974Z,1.10
2023-02-09T16:54:57.072Z,1.20
2023-02-09T16:57:25.379Z,1.10
2023-02-09T16:59:53.728Z,1.20
2023-02-09T17:02:31.977Z,1.20
2023-02-09T17:05:00.192Z,1.10
2023-02-09T17:07:39.773Z,1.10
2023-02-09T17:10:17.989Z,1.00
2023-02-09T17:12:45.284Z,1.00
2023-02-09T17:15:28.595Z,0.90
2023-02-09T17:18:01.924Z,1.00
2023-02-09T17:20:36.666Z,0.90
2023-02-09T17:23:04.032Z,0.80
2023-02-09T17:25:31.454Z,0.80
2023-02-09T17:27:58.481Z,0.80
2023-02-09T17:30:25.881Z,0.80
2023-02-09T17:33:00.344Z,0.70
2023-02-09T17:35:52.915Z,0.60
2023-02-09T17:38:23.985Z,0.60
2023-02-09T17:40:52.605Z,0.60
2023-02-09T17:43:20.813Z,0.70
2023-02-09T17:45:50.805Z,0.60
2023-02-09T17:48:18.984Z,0.60
2023-02-09T17:50:48.684Z,0.60
2023-02-09T17:53:23.488Z,0.60
2023-02-09T17:55:51.616Z,0.60
2023-02-09T17:58:19.030Z,0.50
2023-02-09T18:00:46.534Z,0.50
2023-02-09T18:03:16.586Z,0.40
2023-02-09T18:05:44.597Z,0.40
2023-02-09T18:08:11.804Z,0.50
2023-02-09T18:10:39.202Z,0.40
2023-02-09T18:13:06.141Z,0.50
2023-02-09T18:15:37.440Z,0.50
2023-02-09T18:18:04.713Z,0.50
2023-02-09T18:20:33.293Z,0.50
2023-02-09T18:23:02.813Z,0.50
2023-02-09T18:25:37.955Z,0.40
2023-02-09T18:28:07.445Z,0.50
2023-02-09T18:30:37.908Z,0.50
2023-02-09T18:33:06.598Z,0.40
2023-02-09T18:35:36.668Z,0.40
2023-02-09T18:38:05.549Z,0.40
2023-02-09T18:40:33.811Z,0.30
2023-02-09T18:43:02.104Z,0.30
2023-02-09T18:45:30.605Z,0.40
2023-02-09T18:47:58.000Z,0.40
2023-02-09T18:50:31.672Z,0.40
2023-02-09T18:53:03.074Z,0.30
2023-02-09T18:55:32.698Z,0.30
2023-02-09T18:58:02.268Z,0.30
2023-02-09T19:00:30.032Z,0.30
2023-02-09T19:02:58.278Z,0.20
2023-02-09T19:05:29.303Z,0.20
2023-02-09T19:07:57.203Z,0.30
2023-02-09T19:10:25.120Z,0.30
2023-02-09T19:12:52.466Z,0.20
2023-02-09T19:15:22.458Z,0.20
2023-02-09T19:17:49.537Z,0.10
2023-02-09T19:20:20.476Z,0.10
2023-02-09T19:22:47.931Z,0.10
2023-02-09T19:25:15.657Z,0.20
2023-02-09T19:27:42.638Z,0.10
2023-02-09T19:30:14.212Z,0.00
2023-02-09T19:32:41.397Z,0.00
2023-02-09T19:35:09.013Z,0.00
2023-02-09T19:37:37.463Z,0.00
2023-02-09T19:40:11.137Z,0.00
2023-02-09T19:42:38.118Z,0.00
2023-02-09T19:45:05.716Z,-0.10
2023-02-09T19:47:32.774Z,-0.10
2023-02-09T19:50:00.148Z,-0.10
2023-02-09T19:52:27.789Z,-0.10
2023-02-09T19:54:57.376Z,-0.10
2023-02-09T19:57:24.847Z,-0.10
2023-02-09T19:59:53.332Z,-0.20
2023-02-09T20:02:20.340Z,-0.20
2023-02-09T20:04:47.626Z,-0.30
2023-02-09T20:07:14.719Z,-0.30
2023-02-09T20:09:42.154Z,-0.30
2023-02-09T20:12:09.219Z,-0.30
2023-02-09T20:14:36.519Z,-0.30
2023-02-09T20:17:03.661Z,-0.40
2023-02-09T20:19:31.094Z,-0.40
2023-02-09T20:21:58.057Z,-0.40
2023-02-09T20:24:25.332Z,-0.50
2023-02-09T20:26:52.351Z,-0.50
2023-02-09T20:29:22.157Z,-0.50
2023-02-09T20:31:49.391Z,-0.40
2023-02-09T20:34:16.868Z,-0.40
2023-02-09T20:36:45.605Z,-0.50
2023-02-09T20:39:16.185Z,-0.40
2023-02-09T20:42:06.879Z,-0.40
2023-02-09T20:44:53.441Z,-0.50
2023-02-09T20:47:20.644Z,-0.50
2023-02-09T20:49:48.010Z,-0.50
2023-02-09T20:52:15.088Z,-0.50
2023-02-09T20:54:42.335Z,-0.50
2023-02-09T20:57:09.535Z,-0.60
2023-02-09T20:59:37.614Z,-0.70
2023-02-09T21:02:04.618Z,-0.60
2023-02-09T21:04:32.109Z,-0.60
2023-02-09T21:07:00.436Z,-0.60
2023-02-09T21:09:28.363Z,-0.60
2023-02-09T21:11:56.283Z,-0.60
2023-02-09T21:14:27.845Z,-0.70
2023-02-09T21:16:59.859Z,-0.70
2023-02-09T21:19:27.116Z,-0.60
2023-02-09T21:21:54.130Z,-0.60
2023-02-09T21:24:21.608Z,-0.60
2023-02-09T21:26:48.581Z,-0.60
2023-02-09T21:29:15.920Z,-0.50
2023-02-09T21:31:43.036Z,-0.60
2023-02-09T21:34:13.678Z,-0.50
2023-02-09T21:36:40.854Z,-0.40
2023-02-09T21:39:08.216Z,-0.40
2023-02-09T21:41:54.094Z,-0.40
2023-02-09T21:44:21.391Z,-0.40
2023-02-09T21:46:49.342Z,-0.40
2023-02-09T21:49:16.699Z,-0.40
2023-02-09T21:51:43.702Z,-0.30
2023-02-09T21:54:15.667Z,-0.40
2023-02-09T21:56:43.122Z,-0.30
2023-02-09T21:59:10.964Z,-0.30
2023-02-09T22:01:38.113Z,-0.30
2023-02-09T22:04:05.486Z,-0.20
2023-02-09T22:06:32.568Z,-0.10
2023-02-09T22:09:02.933Z,-0.10
2023-02-09T22:11:30.282Z,-0.10
2023-02-09T22:13:57.499Z,0.00
2023-02-09T22:16:25.443Z,0.00
2023-02-09T22:18:53.096Z,-0.10
2023-02-09T22:21:20.080Z,-0.10
2023-02-09T22:23:47.316Z,-0.10
2023-02-09T22:26:14.942Z,-0.20
2023-02-09T22:28:42.709Z,-0.20
2023-02-09T22:31:12.372Z,-0.30
2023-02-09T22:33:39.748Z,-0.30
2023-02-09T22:36:09.488Z,-0.30
2023-02-09T22:38:37.173Z,-0.30
2023-02-09T22:41:21.346Z,-0.20
2023-02-09T22:43:52.947Z,-0.20
2023-02-09T22:46:22.014Z,-0.30
2023-02-09T22:48:57.724Z,-0.30
2023-02-09T22:51:28.349Z,-0.30
2023-02-09T22:53:56.817Z,-0.30
2023-02-09T22:56:24.529Z,-0.20
2023-02-09T22:58:55.913Z,-0.20
2023-02-09T23:01:23.563Z,-0.20
2023-02-09T23:03:51.021Z,-0.20
2023-02-09T23:06:20.839Z,-0.30
2023-02-09T23:08:48.220Z,-0.20
2023-02-09T23:11:17.202Z,-0.20
2023-02-09T23:13:44.930Z,-0.20
2023-02-09T23:16:16.637Z,-0.30
2023-02-09T23:18:57.717Z,-0.30
2023-02-09T23:21:31.520Z,-0.30
2023-02-09T23:23:58.911Z,-0.30
2023-02-09T23:26:26.745Z,-0.40
2023-02-09T23:28:59.185Z,-0.40
2023-02-09T23:31:27.000Z,-0.40
2023-02-09T23:33:54.922Z,-0.40
2023-02-09T23:36:24.470Z,-0.40
2023-02-09T23:39:00.078Z,-0.40
2023-02-09T23:41:28.079Z,-0.40
2023-02-09T23:43:56.031Z,-0.50
2023-02-09T23:46:27.356Z,-0.50
2023-02-09T23:48:56.259Z,-0.50
2023-02-09T23:51:29.696Z,-0.50
2023-02-09T23:54:02.526Z,-0.50
2023-02-09T23:56:36.685Z,-0.50
2023-02-09T23:59:06.175Z,-0.60
